Time,TemperatureF,DewpointF,PressureIn,WindDirection,WindDirectionDegrees,WindSpeedMPH,WindSpeedGustMPH,Humidity,HourlyPrecipIn,Conditions,Clouds,dailyrainin,SoftwareType,DateUTC
2013-02-14 00:04:00,43.2,41.9,30.24,NNE,13,0.0,0.0,95,0.00,,,0.00,LWC V1.00 B64,2013-02-14 08:04:00,
2013-02-14 00:09:00,43.0,41.7,30.24,NNE,13,0.0,0.0,95,0.00,,,0.00,LWC V1.00 B64,2013-02-14 08:09:00,
2013-02-14 00:14:00,42.9,41.6,30.24,NNE,13,0.0,0.0,95,0.00,,,0.00,LWC V1.00 B64,2013-02-14 08:14:00,
2013-02-14 00:19:00,42.8,41.5,30.24,NNE,13,0.0,0.0,95,0.00,,,0.00,LWC V1.00 B64,2013-02-14 08:19:00,
2013-02-14 00:24:00,42.6,41.3,30.24,NNE,13,0.0,0.0,95,0.00,,,0.00,LWC V1.00 B64,2013-02-14 08:24:00,
2013-02-14 00:29:00,42.5,41.2,30.24,NNE,13,0.0,0.0,95,0.00,,,0.00,LWC V1.00 B64,2013-02-14 08:29:00,
2013-02-14 00:34:00,42.3,41.0,30.24,NNE,13,0.0,0.0,95,0.00,,,0.00,LWC V1.00 B64,2013-02-14 08:34:00,
2013-02-14 00:39:00,42.1,40.8,30.24,NNE,13,0.0,0.0,95,0.00,,,0.00,LWC V1.00 B64,2013-02-14 08:39:00,
2013-02-14 00:44:00,42.0,40.7,30.24,NNE,13,0.0,0.0,95,0.00,,,0.00,LWC V1.00 B64,2013-02-14 08:44:00,
2013-02-14 00:49:00,41.9,40.8,30.24,NNE,13,0.0,0.0,96,0.00,,,0.00,LWC V1.00 B64,2013-02-14 08:49:00,
2013-02-14 00:54:00,41.8,40.7,30.24,NNE,13,0.0,0.0,96,0.00,,,0.00,LWC V1.00 B64,2013-02-14 08:54:00,
2013-02-14 00:59:00,41.6,40.3,30.24,NNE,13,0.0,0.0,95,0.00,,,0.00,LWC V1.00 B64,2013-02-14 08:59:00,
2013-02-14 01:04:00,41.5,40.2,30.24,NNE,13,0.0,0.0,95,0.00,,,0.00,LWC V1.00 B64,2013-02-14 09:04:00,
2013-02-14 01:09:00,41.3,40.2,30.24,NNE,13,0.0,0.0,96,0.00,,,0.00,LWC V1.00 B64,2013-02-14 09:09:00,
2013-02-14 01:14:00,41.2,40.1,30.24,NNE,13,0.0,0.0,96,0.00,,,0.00,LWC V1.00 B64,2013-02-14 09:14:00,
2013-02-14 01:19:00,41.1,39.8,30.24,NNE,13,0.0,0.0,95,0.00,,,0.00,LWC V1.00 B64,2013-02-14 09:19:00,
2013-02-14 01:24:00,41.0,39.9,30.24,NNE,13,0.0,0.0,96,0.00,,,0.00,LWC V1.00 B64,2013-02-14 09:24:00,
2013-02-14 01:29:00,40.9,39.8,30.24,NNE,13,0.0,0.0,96,0.00,,,0.00,LWC V1.00 B64,2013-02-14 09:29:00,
2013-02-14 01:34:00,40.8,39.7,30.24,NNE,13,0.0,0.0,96,0.00,,,0.00,LWC V1.00 B64,2013-02-14 09:34:00,
2013-02-14 01:39:00,40.7,39.6,30.24,NNE,13,0.0,0.0,96,0.00,,,0.00,LWC V1.00 B64,2013-02-14 09:39:00,
2013-02-14 01:44:00,40.6,39.5,30.24,NNE,13,0.0,0.0,96,0.00,,,0.00,LWC V1.00 B64,2013-02-14 09:44:00,
2013-02-14 01:49:00,40.5,39.5,30.24,NNE,13,0.0,0.0,96,0.00,,,0.00,LWC V1.00 B64,2013-02-14 09:49:00,
2013-02-14 01:54:00,40.5,39.5,30.24,NNE,13,0.0,0.0,96,0.00,,,0.00,LWC V1.00 B64,2013-02-14 09:54:00,
2013-02-14 01:59:00,40.5,39.5,30.23,NNE,13,0.0,0.0,96,0.00,,,0.00,LWC V1.00 B64,2013-02-14 09:59:00,
2013-02-14 02:04:00,40.4,39.4,30.23,NNE,13,0.0,0.0,96,0.00,,,0.00,LWC V1.00 B64,2013-02-14 10:04:00,
2013-02-14 02:09:00,40.4,39.4,30.24,NNE,13,0.0,0.0,96,0.00,,,0.00,LWC V1.00 B64,2013-02-14 10:09:00,
2013-02-14 02:14:00,40.3,39.3,30.23,NNE,13,0.0,0.0,96,0.00,,,0.00,LWC V1.00 B64,2013-02-14 10:14:00,
2013-02-14 02:19:00,40.1,39.1,30.24,NNE,13,0.0,0.0,96,0.00,,,0.00,LWC V1.00 B64,2013-02-14 10:19:00,
2013-02-14 02:24:00,40.1,39.1,30.23,NNE,13,0.0,0.0,96,0.00,,,0.00,LWC V1.00 B64,2013-02-14 10:24:00,
2013-02-14 02:29:00,40.1,39.1,30.24,NNE,13,0.0,0.0,96,0.00,,,0.00,LWC V1.00 B64,2013-02-14 10:29:00,
2013-02-14 02:34:00,40.0,39.0,30.24,NNE,13,0.0,0.0,96,0.00,,,0.00,LWC V1.00 B64,2013-02-14 10:34:00,
2013-02-14 02:39:00,39.8,38.8,30.23,NNE,13,0.0,0.0,96,0.00,,,0.00,LWC V1.00 B64,2013-02-14 10:39:00,
2013-02-14 02:44:00,39.7,38.7,30.23,NNE,13,0.0,0.0,96,0.00,,,0.00,LWC V1.00 B64,2013-02-14 10:44:00,
2013-02-14 02:49:00,39.6,38.6,30.23,NNE,13,0.0,0.0,96,0.00,,,0.00,LWC V1.00 B64,2013-02-14 10:49:00,
2013-02-14 02:54:00,39.6,38.6,30.23,NNE,13,0.0,0.0,96,0.00,,,0.00,LWC V1.00 B64,2013-02-14 10:54:00,
2013-02-14 02:59:00,39.6,38.6,30.23,NNE,13,0.0,0.0,96,0.00,,,0.00,LWC V1.00 B64,2013-02-14 10:59:00,
2013-02-14 03:04:00,39.5,38.5,30.23,NNE,13,0.0,0.0,96,0.00,,,0.00,LWC V1.00 B64,2013-02-14 11:04:00,
2013-02-14 03:09:00,39.4,38.4,30.23,NNE,13,0.0,0.0,96,0.00,,,0.00,LWC V1.00 B64,2013-02-14 11:09:00,
2013-02-14 03:14:00,39.3,38.3,30.23,NNE,13,0.0,0.0,96,0.00,,,0.00,LWC V1.00 B64,2013-02-14 11:14:00,
2013-02-14 03:19:00,39.2,38.2,30.23,NNE,13,0.0,0.0,96,0.00,,,0.00,LWC V1.00 B64,2013-02-14 11:19:00,
2013-02-14 03:24:00,39.2,38.2,30.23,NNE,13,0.0,0.0,96,0.00,,,0.00,LWC V1.00 B64,2013-02-14 11:24:00,
2013-02-14 03:29:00,39.2,38.2,30.23,NNE,13,0.0,0.0,96,0.00,,,0.00,LWC V1.00 B64,2013-02-14 11:29:00,
2013-02-14 03:34:00,39.1,38.1,30.23,NNE,13,0.0,0.0,96,0.00,,,0.00,LWC V1.00 B64,2013-02-14 11:34:00,
2013-02-14 03:39:00,39.0,38.0,30.23,NNE,13,0.0,0.0,96,0.00,,,0.00,LWC V1.00 B64,2013-02-14 11:39:00,
2013-02-14 03:44:00,38.9,37.9,30.23,NNE,13,0.0,0.0,96,0.00,,,0.00,LWC V1.00 B64,2013-02-14 11:44:00,
2013-02-14 03:49:00,38.8,37.8,30.23,NNE,13,0.0,0.0,96,0.00,,,0.00,LWC V1.00 B64,2013-02-14 11:49:00,
2013-02-14 03:54:00,38.7,37.7,30.22,NNE,13,0.0,0.0,96,0.00,,,0.00,LWC V1.00 B64,2013-02-14 11:54:00,
2013-02-14 03:59:00,38.6,37.6,30.22,NNE,13,0.0,0.0,96,0.00,,,0.00,LWC V1.00 B64,2013-02-14 11:59:00,
2013-02-14 04:05:00,38.5,37.5,30.22,NNE,13,0.0,0.0,96,0.00,,,0.01,LWC V1.00 B64,2013-02-14 12:05:00,
2013-02-14 04:10:00,38.4,37.4,30.23,NNE,13,0.0,0.0,96,0.00,,,0.01,LWC V1.00 B64,2013-02-14 12:10:00,
2013-02-14 04:15:00,38.3,37.3,30.22,NNE,13,0.0,0.0,96,0.00,,,0.01,LWC V1.00 B64,2013-02-14 12:15:00,
2013-02-14 04:20:00,38.2,37.2,30.23,NNE,13,0.0,0.0,96,0.00,,,0.01,LWC V1.00 B64,2013-02-14 12:20:00,
2013-02-14 04:25:00,38.1,37.1,30.23,NNE,13,0.0,0.0,96,0.00,,,0.01,LWC V1.00 B64,2013-02-14 12:25:00,
2013-02-14 04:30:00,38.1,37.1,30.23,NNE,13,0.0,0.0,96,0.00,,,0.01,LWC V1.00 B64,2013-02-14 12:30:00,
2013-02-14 04:35:00,38.2,37.2,30.23,NNE,13,0.0,0.0,96,0.00,,,0.01,LWC V1.00 B64,2013-02-14 12:35:00,
2013-02-14 04:40:00,38.2,37.2,30.23,NNE,13,0.0,0.0,96,0.00,,,0.01,LWC V1.00 B64,2013-02-14 12:40:00,
2013-02-14 04:45:00,38.0,37.0,30.23,NNE,13,0.0,0.0,96,0.00,,,0.01,LWC V1.00 B64,2013-02-14 12:45:00,
2013-02-14 04:50:00,37.8,36.8,30.23,NNE,13,0.0,0.0,96,0.00,,,0.01,LWC V1.00 B64,2013-02-14 12:50:00,
2013-02-14 04:55:00,37.7,36.7,30.23,NNE,13,0.0,0.0,96,0.00,,,0.01,LWC V1.00 B64,2013-02-14 12:55:00,
2013-02-14 05:00:00,37.6,36.6,30.23,NNE,13,0.0,0.0,96,0.00,,,0.01,LWC V1.00 B64,2013-02-14 13:00:00,
2013-02-14 05:05:00,37.5,36.5,30.23,NNE,13,0.0,0.0,96,0.00,,,0.01,LWC V1.00 B64,2013-02-14 13:05:00,
2013-02-14 05:10:00,37.5,36.5,30.23,NNE,13,0.0,0.0,96,0.00,,,0.01,LWC V1.00 B64,2013-02-14 13:10:00,
2013-02-14 05:15:00,37.4,36.4,30.23,NNE,13,0.0,0.0,96,0.00,,,0.01,LWC V1.00 B64,2013-02-14 13:15:00,
2013-02-14 05:20:00,37.2,36.2,30.23,NNE,13,0.0,0.0,96,0.00,,,0.01,LWC V1.00 B64,2013-02-14 13:20:00,
2013-02-14 05:25:00,37.1,36.1,30.23,NNE,13,0.0,0.0,96,0.00,,,0.01,LWC V1.00 B64,2013-02-14 13:25:00,
2013-02-14 05:30:00,37.0,36.0,30.23,NNE,13,0.0,0.0,96,0.00,,,0.01,LWC V1.00 B64,2013-02-14 13:30:00,
2013-02-14 05:35:00,36.9,35.9,30.23,NNE,13,0.0,0.0,96,0.00,,,0.01,LWC V1.00 B64,2013-02-14 13:35:00,
2013-02-14 05:40:00,36.8,35.8,30.23,NNE,13,0.0,0.0,96,0.00,,,0.01,LWC V1.00 B64,2013-02-14 13:40:00,
2013-02-14 05:45:00,36.7,35.7,30.23,NNE,13,0.0,0.0,96,0.00,,,0.01,LWC V1.00 B64,2013-02-14 13:45:00,
2013-02-14 05:50:00,36.7,35.7,30.23,NNE,13,0.0,0.0,96,0.00,,,0.01,LWC V1.00 B64,2013-02-14 13:50:00,
2013-02-14 05:55:00,36.7,35.7,30.23,NNE,13,0.0,0.0,96,0.00,,,0.01,LWC V1.00 B64,2013-02-14 13:55:00,
2013-02-14 06:00:00,36.6,35.6,30.23,NNE,13,0.0,0.0,96,0.00,,,0.01,LWC V1.00 B64,2013-02-14 14:00:00,
2013-02-14 06:05:00,36.4,35.4,30.24,NNE,13,0.0,0.0,96,0.00,,,0.01,LWC V1.00 B64,2013-02-14 14:05:00,
2013-02-14 06:10:00,36.3,35.3,30.24,NNE,13,0.0,0.0,96,0.00,,,0.01,LWC V1.00 B64,2013-02-14 14:10:00,
2013-02-14 06:15:00,36.3,35.3,30.24,NNE,13,0.0,0.0,96,0.00,,,0.01,LWC V1.00 B64,2013-02-14 14:15:00,
2013-02-14 06:20:00,36.3,35.3,30.24,NNE,13,0.0,0.0,96,0.00,,,0.01,LWC V1.00 B64,2013-02-14 14:20:00,
2013-02-14 06:25:00,36.3,35.3,30.24,NNE,13,0.0,0.0,96,0.00,,,0.01,LWC V1.00 B64,2013-02-14 14:25:00,
2013-02-14 06:30:00,36.3,35.3,30.24,NNE,13,0.0,0.0,96,0.00,,,0.01,LWC V1.00 B64,2013-02-14 14:30:00,
2013-02-14 06:35:00,36.2,35.2,30.24,NNE,13,0.0,0.0,96,0.00,,,0.01,LWC V1.00 B64,2013-02-14 14:35:00,
2013-02-14 06:40:00,36.2,35.2,30.24,NNE,13,0.0,0.0,96,0.00,,,0.01,LWC V1.00 B64,2013-02-14 14:40:00,
2013-02-14 06:45:00,36.1,35.1,30.24,NNE,13,0.0,0.0,96,0.00,,,0.01,LWC V1.00 B64,2013-02-14 14:45:00,
2013-02-14 06:50:00,36.0,35.0,30.25,NNE,13,0.0,0.0,96,0.00,,,0.01,LWC V1.00 B64,2013-02-14 14:50:00,
2013-02-14 06:55:00,36.0,35.0,30.25,NNE,13,0.0,0.0,96,0.00,,,0.01,LWC V1.00 B64,2013-02-14 14:55:00,
2013-02-14 07:00:00,36.0,35.2,30.25,NNE,13,0.0,0.0,97,0.00,,,0.01,LWC V1.00 B64,2013-02-14 15:00:00,
2013-02-14 07:05:00,35.9,34.9,30.25,NNE,13,0.0,0.0,96,0.00,,,0.01,LWC V1.00 B64,2013-02-14 15:05:00,
2013-02-14 07:10:00,35.9,34.9,30.25,NNE,13,0.0,0.0,96,0.00,,,0.01,LWC V1.00 B64,2013-02-14 15:10:00,
2013-02-14 07:15:00,35.8,34.8,30.25,NNE,13,0.0,0.0,96,0.00,,,0.01,LWC V1.00 B64,2013-02-14 15:15:00,
2013-02-14 07:20:00,35.9,35.1,30.24,NNE,13,0.0,0.0,97,0.00,,,0.01,LWC V1.00 B64,2013-02-14 15:20:00,
2013-02-14 07:25:00,35.9,35.1,30.25,NNE,13,0.0,0.0,97,0.00,,,0.01,LWC V1.00 B64,2013-02-14 15:25:00,
2013-02-14 07:30:00,35.9,35.1,30.25,NNE,13,0.0,0.0,97,0.00,,,0.01,LWC V1.00 B64,2013-02-14 15:30:00,
2013-02-14 07:35:00,35.9,34.9,30.25,NNE,13,0.0,0.0,96,0.00,,,0.01,LWC V1.00 B64,2013-02-14 15:35:00,
2013-02-14 07:40:00,35.9,34.9,30.25,NNE,13,0.0,0.0,96,0.00,,,0.01,LWC V1.00 B64,2013-02-14 15:40:00,
2013-02-14 07:45:00,36.0,35.2,30.25,NNE,13,0.0,0.0,97,0.00,,,0.01,LWC V1.00 B64,2013-02-14 15:45:00,
2013-02-14 07:50:00,36.1,35.3,30.25,NNE,13,0.0,0.0,97,0.00,,,0.01,LWC V1.00 B64,2013-02-14 15:50:00,
2013-02-14 07:55:00,36.2,35.4,30.26,NNE,13,0.0,0.0,97,0.00,,,0.01,LWC V1.00 B64,2013-02-14 15:55:00,
2013-02-14 08:00:00,36.4,35.6,30.26,NNE,13,0.0,0.0,97,0.00,,,0.01,LWC V1.00 B64,2013-02-14 16:00:00,
2013-02-14 08:05:00,36.8,36.0,30.26,NNE,13,0.0,0.0,97,0.00,,,0.01,LWC V1.00 B64,2013-02-14 16:05:00,
2013-02-14 08:10:00,37.7,36.9,30.26,NNE,13,0.0,0.0,97,0.00,,,0.01,LWC V1.00 B64,2013-02-14 16:10:00,
2013-02-14 08:15:00,38.6,37.8,30.26,NNE,13,0.0,0.0,97,0.00,,,0.01,LWC V1.00 B64,2013-02-14 16:15:00,
2013-02-14 08:20:00,39.1,38.3,30.26,NNE,13,0.0,0.0,97,0.00,,,0.01,LWC V1.00 B64,2013-02-14 16:20:00,
2013-02-14 08:25:00,39.5,38.7,30.27,NNE,13,0.0,0.0,97,0.00,,,0.01,LWC V1.00 B64,2013-02-14 16:25:00,
2013-02-14 08:30:00,40.0,39.2,30.26,NNE,13,0.0,0.0,97,0.00,,,0.01,LWC V1.00 B64,2013-02-14 16:30:00,
2013-02-14 08:35:00,40.3,39.5,30.26,NNE,13,0.0,0.0,97,0.00,,,0.01,LWC V1.00 B64,2013-02-14 16:35:00,
2013-02-14 08:40:00,40.9,40.1,30.26,NNE,13,0.0,0.0,97,0.00,,,0.01,LWC V1.00 B64,2013-02-14 16:40:00,
2013-02-14 08:45:00,41.5,40.7,30.27,NNE,13,0.0,0.0,97,0.00,,,0.01,LWC V1.00 B64,2013-02-14 16:45:00,
2013-02-14 08:50:00,42.0,41.2,30.26,NNE,13,0.0,0.0,97,0.00,,,0.01,LWC V1.00 B64,2013-02-14 16:50:00,
2013-02-14 08:55:00,42.5,41.7,30.26,NNE,13,0.0,1.0,97,0.00,,,0.01,LWC V1.00 B64,2013-02-14 16:55:00,
2013-02-14 09:00:00,43.3,42.8,30.26,NNE,13,0.0,1.0,98,0.00,,,0.01,LWC V1.00 B64,2013-02-14 17:00:00,
2013-02-14 09:05:00,43.6,42.8,30.26,NNE,12,0.0,1.0,97,0.00,,,0.01,LWC V1.00 B64,2013-02-14 17:05:00,
2013-02-14 09:10:00,44.0,43.2,30.26,NNE,12,1.0,1.0,97,0.00,,,0.01,LWC V1.00 B64,2013-02-14 17:10:00,
2013-02-14 09:15:00,44.5,43.7,30.26,North,11,0.0,1.0,97,0.00,,,0.01,LWC V1.00 B64,2013-02-14 17:15:00,
2013-02-14 09:20:00,45.2,44.4,30.26,North,11,0.0,1.0,97,0.00,,,0.01,LWC V1.00 B64,2013-02-14 17:20:00,
2013-02-14 09:25:00,45.6,44.8,30.26,NNE,12,0.0,0.0,97,0.00,,,0.01,LWC V1.00 B64,2013-02-14 17:25:00,
2013-02-14 09:30:00,46.2,45.4,30.26,North,11,0.0,1.0,97,0.00,,,0.01,LWC V1.00 B64,2013-02-14 17:30:00,
2013-02-14 09:35:00,46.4,45.6,30.26,NNE,12,0.0,1.0,97,0.00,,,0.01,LWC V1.00 B64,2013-02-14 17:35:00,
2013-02-14 09:40:00,47.1,46.3,30.25,NNE,12,0.0,1.0,97,0.00,,,0.01,LWC V1.00 B64,2013-02-14 17:40:00,
2013-02-14 09:45:00,47.8,47.0,30.25,North,11,0.0,1.0,97,0.00,,,0.01,LWC V1.00 B64,2013-02-14 17:45:00,
2013-02-14 09:50:00,48.5,47.7,30.25,North,11,1.0,1.0,97,0.00,,,0.01,LWC V1.00 B64,2013-02-14 17:50:00,
2013-02-14 09:55:00,48.9,48.1,30.25,North,11,0.0,1.0,97,0.00,,,0.01,LWC V1.00 B64,2013-02-14 17:55:00,
2013-02-14 10:00:00,49.6,48.5,30.25,North,10,0.0,2.0,96,0.00,,,0.01,LWC V1.00 B64,2013-02-14 18:00:00,
2013-02-14 10:05:00,50.1,49.0,30.25,North,10,0.0,1.0,96,0.00,,,0.01,LWC V1.00 B64,2013-02-14 18:05:00,
2013-02-14 10:10:00,51.0,49.9,30.25,North,10,0.0,1.0,96,0.00,,,0.01,LWC V1.00 B64,2013-02-14 18:10:00,
2013-02-14 10:15:00,51.6,50.2,30.24,North,10,0.0,2.0,95,0.00,,,0.01,LWC V1.00 B64,2013-02-14 18:15:00,
2013-02-14 10:20:00,52.4,50.4,30.24,North,10,0.0,1.0,93,0.00,,,0.01,LWC V1.00 B64,2013-02-14 18:20:00,
2013-02-14 10:25:00,53.3,51.3,30.24,North,10,0.0,1.0,93,0.00,,,0.01,LWC V1.00 B64,2013-02-14 18:25:00,
2013-02-14 10:30:00,54.5,51.9,30.24,NNW,348,1.0,2.0,91,0.00,,,0.01,LWC V1.00 B64,2013-02-14 18:30:00,
2013-02-14 10:35:00,55.4,51.6,30.24,NW,310,0.0,2.0,87,0.00,,,0.01,LWC V1.00 B64,2013-02-14 18:35:00,
2013-02-14 10:40:00,56.1,51.7,30.24,NW,309,2.0,2.0,85,0.00,,,0.01,LWC V1.00 B64,2013-02-14 18:40:00,
2013-02-14 10:45:00,56.7,50.9,30.24,West,263,1.0,3.0,81,0.00,,,0.01,LWC V1.00 B64,2013-02-14 18:45:00,
2013-02-14 10:50:00,57.5,50.7,30.24,West,263,0.0,2.0,78,0.00,,,0.01,LWC V1.00 B64,2013-02-14 18:50:00,
2013-02-14 10:55:00,58.3,50.8,30.23,West,263,0.0,2.0,76,0.00,,,0.01,LWC V1.00 B64,2013-02-14 18:55:00,
2013-02-14 11:00:00,59.1,51.2,30.23,West,263,0.0,1.0,75,0.00,,,0.01,LWC V1.00 B64,2013-02-14 19:00:00,
2013-02-14 11:05:00,60.0,50.9,30.23,West,263,2.0,3.0,72,0.00,,,0.01,LWC V1.00 B64,2013-02-14 19:05:00,
2013-02-14 11:10:00,60.8,51.3,30.23,West,261,2.0,2.0,71,0.00,,,0.01,LWC V1.00 B64,2013-02-14 19:10:00,
2013-02-14 11:15:00,61.3,51.0,30.24,West,261,0.0,2.0,69,0.00,,,0.01,LWC V1.00 B64,2013-02-14 19:15:00,
2013-02-14 11:20:00,62.0,50.1,30.23,West,261,0.0,2.0,65,0.00,,,0.01,LWC V1.00 B64,2013-02-14 19:20:00,
2013-02-14 11:25:00,62.4,48.3,30.23,West,261,2.0,2.0,60,0.00,,,0.01,LWC V1.00 B64,2013-02-14 19:25:00,
2013-02-14 11:30:00,63.1,49.4,30.23,West,261,0.0,1.0,61,0.00,,,0.01,LWC V1.00 B64,2013-02-14 19:30:00,
2013-02-14 11:35:00,63.8,48.3,30.23,West,261,0.0,1.0,57,0.00,,,0.01,LWC V1.00 B64,2013-02-14 19:35:00,
2013-02-14 11:40:00,64.5,49.4,30.23,West,261,0.0,1.0,58,0.00,,,0.01,LWC V1.00 B64,2013-02-14 19:40:00,
2013-02-14 11:45:00,64.9,48.3,30.22,West,260,0.0,3.0,55,0.00,,,0.01,LWC V1.00 B64,2013-02-14 19:45:00,
2013-02-14 11:50:00,65.4,50.7,30.22,West,261,1.0,2.0,59,0.00,,,0.01,LWC V1.00 B64,2013-02-14 19:50:00,
2013-02-14 11:55:00,66.1,50.4,30.22,West,260,0.0,2.0,57,0.00,,,0.01,LWC V1.00 B64,2013-02-14 19:55:00,
2013-02-14 12:00:00,66.5,49.3,30.21,West,260,0.0,2.0,54,0.00,,,0.01,LWC V1.00 B64,2013-02-14 20:00:00,
2013-02-14 12:05:00,66.5,49.3,30.21,West,260,0.0,1.0,54,0.00,,,0.01,LWC V1.00 B64,2013-02-14 20:05:00,
2013-02-14 12:10:00,66.7,49.5,30.21,West,267,3.0,3.0,54,0.00,,,0.01,LWC V1.00 B64,2013-02-14 20:10:00,
2013-02-14 12:15:00,65.7,49.6,30.21,NNW,334,5.0,7.0,56,0.00,,,0.01,LWC V1.00 B64,2013-02-14 20:15:00,
2013-02-14 12:20:00,64.4,48.8,30.21,North,355,6.0,7.0,57,0.00,,,0.01,LWC V1.00 B64,2013-02-14 20:20:00,
2013-02-14 12:25:00,64.1,48.5,30.21,NNE,16,6.0,6.0,57,0.00,,,0.01,LWC V1.00 B64,2013-02-14 20:25:00,
2013-02-14 12:30:00,64.0,49.8,30.21,NNW,329,4.0,6.0,60,0.00,,,0.01,LWC V1.00 B64,2013-02-14 20:30:00,
2013-02-14 12:35:00,63.8,51.8,30.21,North,0,6.0,7.0,65,0.00,,,0.01,LWC V1.00 B64,2013-02-14 20:35:00,
2013-02-14 12:40:00,63.7,51.3,30.21,North,355,4.0,10.0,64,0.00,,,0.01,LWC V1.00 B64,2013-02-14 20:40:00,
2013-02-14 12:45:00,63.7,52.1,30.20,NW,324,4.0,6.0,66,0.00,,,0.01,LWC V1.00 B64,2013-02-14 20:45:00,
2013-02-14 12:50:00,64.2,51.8,30.20,North,351,4.0,7.0,64,0.00,,,0.01,LWC V1.00 B64,2013-02-14 20:50:00,
2013-02-14 12:55:00,64.2,51.3,30.20,North,5,6.0,6.0,63,0.00,,,0.01,LWC V1.00 B64,2013-02-14 20:55:00,
2013-02-14 13:00:00,63.8,51.0,30.20,North,11,4.0,9.0,63,0.00,,,0.01,LWC V1.00 B64,2013-02-14 21:00:00,
2013-02-14 13:05:00,63.7,50.9,30.20,NNW,334,3.0,10.0,63,0.00,,,0.01,LWC V1.00 B64,2013-02-14 21:05:00,
2013-02-14 13:10:00,63.7,50.4,30.20,North,0,5.0,10.0,62,0.00,,,0.01,LWC V1.00 B64,2013-02-14 21:10:00,
2013-02-14 13:15:00,64.2,50.5,30.19,NNE,14,7.0,8.0,61,0.00,,,0.01,LWC V1.00 B64,2013-02-14 21:15:00,
2013-02-14 13:20:00,64.5,51.2,30.19,North,355,3.0,10.0,62,0.00,,,0.01,LWC V1.00 B64,2013-02-14 21:20:00,
2013-02-14 13:25:00,64.6,50.4,30.19,NW,321,5.0,6.0,60,0.00,,,0.01,LWC V1.00 B64,2013-02-14 21:25:00,
2013-02-14 13:30:00,64.8,51.0,30.18,NNW,348,3.0,9.0,61,0.00,,,0.01,LWC V1.00 B64,2013-02-14 21:30:00,
2013-02-14 13:35:00,65.1,51.3,30.18,North,0,4.0,10.0,61,0.00,,,0.01,LWC V1.00 B64,2013-02-14 21:35:00,
2013-02-14 13:40:00,65.2,50.5,30.18,North,5,5.0,9.0,59,0.00,,,0.01,LWC V1.00 B64,2013-02-14 21:40:00,
2013-02-14 13:45:00,65.1,50.4,30.18,NNE,14,5.0,10.0,59,0.00,,,0.01,LWC V1.00 B64,2013-02-14 21:45:00,
2013-02-14 13:50:00,65.1,50.9,30.18,North,9,7.0,9.0,60,0.00,,,0.01,LWC V1.00 B64,2013-02-14 21:50:00,
2013-02-14 13:55:00,64.7,50.0,30.18,North,355,7.0,10.0,59,0.00,,,0.01,LWC V1.00 B64,2013-02-14 21:55:00,
2013-02-14 14:00:00,64.5,49.8,30.18,NNW,333,4.0,7.0,59,0.00,,,0.01,LWC V1.00 B64,2013-02-14 22:00:00,
2013-02-14 14:05:00,64.7,50.9,30.18,North,355,5.0,5.0,61,0.00,,,0.01,LWC V1.00 B64,2013-02-14 22:05:00,
2013-02-14 14:10:00,64.8,50.1,30.18,NNE,17,4.0,6.0,59,0.00,,,0.01,LWC V1.00 B64,2013-02-14 22:10:00,
2013-02-14 14:15:00,64.9,50.7,30.18,NNE,23,5.0,6.0,60,0.00,,,0.01,LWC V1.00 B64,2013-02-14 22:15:00,
2013-02-14 14:20:00,65.1,50.4,30.17,NNW,337,6.0,7.0,59,0.00,,,0.01,LWC V1.00 B64,2013-02-14 22:20:00,
2013-02-14 14:25:00,65.4,50.7,30.17,NW,323,4.0,10.0,59,0.00,,,0.01,LWC V1.00 B64,2013-02-14 22:25:00,
2013-02-14 14:30:00,64.7,50.5,30.17,NNE,17,5.0,8.0,60,0.00,,,0.01,LWC V1.00 B64,2013-02-14 22:30:00,
2013-02-14 14:35:00,64.5,50.7,30.17,NNW,344,5.0,9.0,61,0.00,,,0.01,LWC V1.00 B64,2013-02-14 22:35:00,
2013-02-14 14:40:00,64.3,49.7,30.17,North,9,5.0,12.0,59,0.00,,,0.01,LWC V1.00 B64,2013-02-14 22:40:00,
2013-02-14 14:45:00,64.1,49.9,30.17,NNW,344,5.0,10.0,60,0.00,,,0.01,LWC V1.00 B64,2013-02-14 22:45:00,
2013-02-14 14:50:00,63.9,49.7,30.17,North,355,4.0,6.0,60,0.00,,,0.01,LWC V1.00 B64,2013-02-14 22:50:00,
2013-02-14 14:55:00,64.0,48.9,30.18,NNW,333,3.0,9.0,58,0.00,,,0.01,LWC V1.00 B64,2013-02-14 22:55:00,
2013-02-14 15:00:00,63.8,49.2,30.17,North,355,0.0,6.0,59,0.00,,,0.01,LWC V1.00 B64,2013-02-14 23:00:00,
2013-02-14 15:05:00,63.7,49.5,30.17,North,5,3.0,6.0,60,0.00,,,0.01,LWC V1.00 B64,2013-02-14 23:05:00,
2013-02-14 15:10:00,63.5,48.9,30.17,NNW,336,3.0,7.0,59,0.00,,,0.01,LWC V1.00 B64,2013-02-14 23:10:00,
2013-02-14 15:15:00,63.7,49.5,30.18,NNE,13,2.0,4.0,60,0.00,,,0.01,LWC V1.00 B64,2013-02-14 23:15:00,
2013-02-14 15:20:00,63.8,49.2,30.18,North,0,2.0,4.0,59,0.00,,,0.01,LWC V1.00 B64,2013-02-14 23:20:00,
2013-02-14 15:25:00,63.9,49.7,30.18,NNW,346,3.0,5.0,60,0.00,,,0.01,LWC V1.00 B64,2013-02-14 23:25:00,
2013-02-14 15:30:00,63.8,49.6,30.18,NNW,348,2.0,7.0,60,0.00,,,0.01,LWC V1.00 B64,2013-02-14 23:30:00,
2013-02-14 15:35:00,63.8,50.5,30.18,North,5,2.0,3.0,62,0.00,,,0.01,LWC V1.00 B64,2013-02-14 23:35:00,
2013-02-14 15:40:00,64.3,50.6,30.18,NW,326,1.0,3.0,61,0.00,,,0.01,LWC V1.00 B64,2013-02-14 23:40:00,
2013-02-14 15:45:00,63.9,50.2,30.18,NNW,348,3.0,3.0,61,0.00,,,0.01,LWC V1.00 B64,2013-02-14 23:45:00,
2013-02-14 15:50:00,63.2,49.5,30.18,North,351,2.0,5.0,61,0.00,,,0.01,LWC V1.00 B64,2013-02-14 23:50:00,
2013-02-14 15:55:00,62.9,49.7,30.18,North,0,4.0,6.0,62,0.00,,,0.01,LWC V1.00 B64,2013-02-14 23:55:00,
2013-02-14 16:00:00,62.9,50.1,30.18,NW,313,0.0,3.0,63,0.00,,,0.01,LWC V1.00 B64,2013-02-15 00:00:00,
2013-02-14 16:05:00,63.2,50.8,30.18,NW,315,2.0,2.0,64,0.00,,,0.01,LWC V1.00 B64,2013-02-15 00:05:00,
2013-02-14 16:10:00,62.9,50.5,30.18,North,355,0.0,1.0,64,0.00,,,0.01,LWC V1.00 B64,2013-02-15 00:10:00,
2013-02-14 16:15:00,62.1,50.2,30.18,North,5,3.0,3.0,65,0.00,,,0.01,LWC V1.00 B64,2013-02-15 00:15:00,
2013-02-14 16:20:00,61.5,50.0,30.18,North,355,1.0,4.0,66,0.00,,,0.01,LWC V1.00 B64,2013-02-15 00:20:00,
2013-02-14 16:25:00,61.2,50.2,30.18,North,349,3.0,4.0,67,0.00,,,0.01,LWC V1.00 B64,2013-02-15 00:25:00,
2013-02-14 16:30:00,60.7,50.1,30.18,North,0,3.0,5.0,68,0.00,,,0.01,LWC V1.00 B64,2013-02-15 00:30:00,
2013-02-14 16:35:00,60.3,50.1,30.18,North,0,2.0,5.0,69,0.00,,,0.01,LWC V1.00 B64,2013-02-15 00:35:00,
2013-02-14 16:40:00,60.1,49.9,30.18,North,0,2.0,5.0,69,0.00,,,0.01,LWC V1.00 B64,2013-02-15 00:40:00,
2013-02-14 16:45:00,59.8,49.6,30.18,North,0,4.0,6.0,69,0.00,,,0.01,LWC V1.00 B64,2013-02-15 00:45:00,
2013-02-14 16:50:00,59.5,49.7,30.18,North,0,1.0,2.0,70,0.00,,,0.01,LWC V1.00 B64,2013-02-15 00:50:00,
2013-02-14 16:55:00,59.5,49.3,30.18,North,355,0.0,1.0,69,0.00,,,0.01,LWC V1.00 B64,2013-02-15 00:55:00,
2013-02-14 17:00:00,59.4,49.2,30.18,North,355,2.0,4.0,69,0.00,,,0.01,LWC V1.00 B64,2013-02-15 01:00:00,
2013-02-14 17:05:00,58.6,48.8,30.18,NNW,346,0.0,6.0,70,0.00,,,0.01,LWC V1.00 B64,2013-02-15 01:05:00,
2013-02-14 17:10:00,58.1,48.7,30.18,NNW,346,2.0,4.0,71,0.00,,,0.01,LWC V1.00 B64,2013-02-15 01:10:00,
2013-02-14 17:15:00,57.5,48.5,30.18,NNW,346,1.0,3.0,72,0.00,,,0.01,LWC V1.00 B64,2013-02-15 01:15:00,
2013-02-14 17:20:00,56.8,48.2,30.18,NNW,346,1.0,1.0,73,0.00,,,0.01,LWC V1.00 B64,2013-02-15 01:20:00,
2013-02-14 17:25:00,56.3,48.1,30.18,NNW,346,0.0,2.0,74,0.00,,,0.01,LWC V1.00 B64,2013-02-15 01:25:00,
2013-02-14 17:30:00,55.9,47.7,30.18,NNW,346,0.0,2.0,74,0.00,,,0.01,LWC V1.00 B64,2013-02-15 01:30:00,
2013-02-14 17:35:00,55.7,47.9,30.18,NNW,348,1.0,3.0,75,0.00,,,0.01,LWC V1.00 B64,2013-02-15 01:35:00,
2013-02-14 17:40:00,55.5,48.1,30.18,NNW,348,0.0,1.0,76,0.00,,,0.01,LWC V1.00 B64,2013-02-15 01:40:00,
2013-02-14 17:45:00,55.3,48.2,30.18,NNW,348,0.0,2.0,77,0.00,,,0.01,LWC V1.00 B64,2013-02-15 01:45:00,
2013-02-14 17:50:00,55.1,48.0,30.18,NNW,348,0.0,0.0,77,0.00,,,0.01,LWC V1.00 B64,2013-02-15 01:50:00,
2013-02-14 17:55:00,54.8,48.1,30.18,NNW,348,0.0,1.0,78,0.00,,,0.01,LWC V1.00 B64,2013-02-15 01:55:00,
2013-02-14 18:00:00,54.6,48.2,30.19,NNW,348,0.0,1.0,79,0.00,,,0.01,LWC V1.00 B64,2013-02-15 02:00:00,
2013-02-14 18:05:00,54.3,47.9,30.19,NNW,348,0.0,0.0,79,0.00,,,0.01,LWC V1.00 B64,2013-02-15 02:05:00,
2013-02-14 18:10:00,53.9,47.9,30.19,NNW,348,0.0,0.0,80,0.00,,,0.01,LWC V1.00 B64,2013-02-15 02:10:00,
2013-02-14 18:15:00,53.6,47.9,30.19,NNW,348,0.0,0.0,81,0.00,,,0.01,LWC V1.00 B64,2013-02-15 02:15:00,
2013-02-14 18:20:00,53.4,47.7,30.19,NNW,348,0.0,0.0,81,0.00,,,0.01,LWC V1.00 B64,2013-02-15 02:20:00,
2013-02-14 18:25:00,53.2,47.8,30.19,NNW,348,0.0,0.0,82,0.00,,,0.01,LWC V1.00 B64,2013-02-15 02:25:00,
2013-02-14 18:30:00,53.0,47.7,30.19,NNW,348,0.0,0.0,82,0.00,,,0.01,LWC V1.00 B64,2013-02-15 02:30:00,
2013-02-14 18:35:00,52.7,47.7,30.20,NNW,348,0.0,0.0,83,0.00,,,0.01,LWC V1.00 B64,2013-02-15 02:35:00,
2013-02-14 18:40:00,52.5,47.8,30.19,NNW,348,0.0,0.0,84,0.00,,,0.01,LWC V1.00 B64,2013-02-15 02:40:00,
2013-02-14 18:45:00,52.1,47.4,30.20,NNW,348,0.0,1.0,84,0.00,,,0.01,LWC V1.00 B64,2013-02-15 02:45:00,
2013-02-14 18:50:00,51.5,46.8,30.19,NNW,348,0.0,0.0,84,0.00,,,0.01,LWC V1.00 B64,2013-02-15 02:50:00,
2013-02-14 18:55:00,51.2,46.8,30.19,NNW,348,0.0,0.0,85,0.00,,,0.01,LWC V1.00 B64,2013-02-15 02:55:00,
2013-02-14 19:00:00,51.1,46.7,30.19,NNW,348,0.0,0.0,85,0.00,,,0.01,LWC V1.00 B64,2013-02-15 03:00:00,
2013-02-14 19:06:00,50.8,46.8,30.19,NNW,348,0.0,0.0,86,0.00,,,0.01,LWC V1.00 B64,2013-02-15 03:06:00,
2013-02-14 19:12:00,50.5,46.5,30.19,NNW,348,0.0,0.0,86,0.00,,,0.01,LWC V1.00 B64,2013-02-15 03:12:00,
2013-02-14 19:17:00,50.2,46.2,30.19,NNW,348,0.0,0.0,86,0.00,,,0.01,LWC V1.00 B64,2013-02-15 03:17:00,
2013-02-14 19:23:00,49.8,45.8,30.19,NNW,348,0.0,0.0,86,0.00,,,0.01,LWC V1.00 B64,2013-02-15 03:23:00,
2013-02-14 19:28:00,49.5,45.5,30.19,NNW,348,0.0,0.0,86,0.00,,,0.01,LWC V1.00 B64,2013-02-15 03:28:00,
2013-02-14 19:33:00,49.1,45.1,30.20,NNW,348,0.0,0.0,86,0.00,,,0.01,LWC V1.00 B64,2013-02-15 03:33:00,
2013-02-14 19:38:00,48.8,45.1,30.19,NNW,348,0.0,0.0,87,0.00,,,0.01,LWC V1.00 B64,2013-02-15 03:38:00,
2013-02-14 19:43:00,48.6,44.9,30.19,NNW,348,0.0,0.0,87,0.00,,,0.01,LWC V1.00 B64,2013-02-15 03:43:00,
2013-02-14 19:48:00,48.3,44.9,30.20,NNW,348,0.0,0.0,88,0.00,,,0.01,LWC V1.00 B64,2013-02-15 03:48:00,
2013-02-14 19:53:00,48.1,44.7,30.20,NNW,348,0.0,0.0,88,0.00,,,0.01,LWC V1.00 B64,2013-02-15 03:53:00,
2013-02-14 19:58:00,47.7,44.0,30.20,NNW,348,0.0,0.0,87,0.00,,,0.01,LWC V1.00 B64,2013-02-15 03:58:00,
2013-02-14 20:03:00,47.4,44.0,30.20,NNW,348,0.0,0.0,88,0.00,,,0.01,LWC V1.00 B64,2013-02-15 04:03:00,
2013-02-14 20:08:00,47.2,43.8,30.20,NNW,348,0.0,0.0,88,0.00,,,0.01,LWC V1.00 B64,2013-02-15 04:08:00,
2013-02-14 20:13:00,47.0,43.9,30.20,NNW,348,0.0,0.0,89,0.00,,,0.01,LWC V1.00 B64,2013-02-15 04:13:00,
2013-02-14 20:18:00,46.8,43.7,30.20,NNW,348,0.0,0.0,89,0.00,,,0.01,LWC V1.00 B64,2013-02-15 04:18:00,
2013-02-14 20:24:00,46.7,43.9,30.20,NNW,348,0.0,0.0,90,0.00,,,0.01,LWC V1.00 B64,2013-02-15 04:24:00,
2013-02-14 20:29:00,46.3,43.2,30.20,NNW,348,0.0,0.0,89,0.00,,,0.01,LWC V1.00 B64,2013-02-15 04:29:00,
2013-02-14 20:34:00,46.1,43.3,30.20,NNW,348,0.0,0.0,90,0.00,,,0.01,LWC V1.00 B64,2013-02-15 04:34:00,
2013-02-14 20:39:00,45.9,43.1,30.20,NNW,348,0.0,1.0,90,0.00,,,0.01,LWC V1.00 B64,2013-02-15 04:39:00,
2013-02-14 20:44:00,45.8,43.0,30.20,NNW,348,0.0,0.0,90,0.00,,,0.01,LWC V1.00 B64,2013-02-15 04:44:00,
2013-02-14 20:49:00,45.6,42.8,30.20,NNW,348,0.0,0.0,90,0.00,,,0.01,LWC V1.00 B64,2013-02-15 04:49:00,
2013-02-14 20:54:00,45.4,42.6,30.21,NNW,348,0.0,0.0,90,0.00,,,0.01,LWC V1.00 B64,2013-02-15 04:54:00,
2013-02-14 21:00:00,45.2,42.7,30.21,NNW,348,0.0,0.0,91,0.00,,,0.01,LWC V1.00 B64,2013-02-15 05:00:00,
2013-02-14 21:01:00,45.2,42.7,30.21,NNW,348,0.0,0.0,91,0.00,,,0.01,LWC V1.00 B64,2013-02-15 05:01:00,
2013-02-14 21:02:00,45.2,42.7,30.21,NNW,348,0.0,0.0,91,0.00,,,0.01,LWC V1.00 B64,2013-02-15 05:02:00,
2013-02-14 21:07:00,45.4,42.9,30.21,NNW,348,0.0,0.0,91,0.00,,,0.01,LWC V1.00 B64,2013-02-15 05:07:00,
2013-02-14 21:13:00,45.1,42.6,30.21,NNW,348,0.0,1.0,91,0.00,,,0.01,LWC V1.00 B64,2013-02-15 05:13:00,
2013-02-14 21:18:00,45.1,42.6,30.21,NNW,348,0.0,0.0,91,0.00,,,0.01,LWC V1.00 B64,2013-02-15 05:18:00,
2013-02-14 21:22:00,45.0,42.5,30.21,NNW,348,0.0,0.0,91,0.00,,,0.01,LWC V1.00 B64,2013-02-15 05:22:00,
2013-02-14 21:27:00,45.0,42.8,30.21,NNW,348,0.0,0.0,92,0.00,,,0.01,LWC V1.00 B64,2013-02-15 05:27:00,
2013-02-14 21:33:00,44.7,42.2,30.21,NNW,348,0.0,0.0,91,0.00,,,0.01,LWC V1.00 B64,2013-02-15 05:33:00,
2013-02-14 21:38:00,44.4,41.9,30.22,NNW,348,0.0,0.0,91,0.00,,,0.01,LWC V1.00 B64,2013-02-15 05:38:00,
2013-02-14 21:43:00,44.1,41.6,30.21,NNW,348,0.0,0.0,91,0.00,,,0.01,LWC V1.00 B64,2013-02-15 05:43:00,
2013-02-14 21:48:00,43.9,41.7,30.22,NNW,348,0.0,0.0,92,0.00,,,0.01,LWC V1.00 B64,2013-02-15 05:48:00,
2013-02-14 21:53:00,43.9,41.7,30.22,NNW,348,0.0,0.0,92,0.00,,,0.01,LWC V1.00 B64,2013-02-15 05:53:00,
2013-02-14 21:59:00,44.0,41.8,30.21,NNW,348,0.0,0.0,92,0.00,,,0.01,LWC V1.00 B64,2013-02-15 05:59:00,
2013-02-14 22:04:00,43.9,41.7,30.21,NNW,348,0.0,0.0,92,0.00,,,0.01,LWC V1.00 B64,2013-02-15 06:04:00,
2013-02-14 22:09:00,43.8,41.9,30.22,NNW,348,0.0,0.0,93,0.00,,,0.01,LWC V1.00 B64,2013-02-15 06:09:00,
2013-02-14 22:14:00,43.9,42.0,30.22,NNW,348,0.0,0.0,93,0.00,,,0.01,LWC V1.00 B64,2013-02-15 06:14:00,
2013-02-14 22:19:00,44.0,42.4,30.22,NNW,348,0.0,1.0,94,0.00,,,0.01,LWC V1.00 B64,2013-02-15 06:19:00,
2013-02-14 22:24:00,44.3,42.7,30.22,NNW,348,0.0,1.0,94,0.00,,,0.01,LWC V1.00 B64,2013-02-15 06:24:00,
2013-02-14 22:29:00,44.0,42.1,30.22,NNW,348,0.0,0.0,93,0.00,,,0.01,LWC V1.00 B64,2013-02-15 06:29:00,
2013-02-14 22:34:00,43.7,41.8,30.22,NNW,348,0.0,0.0,93,0.00,,,0.01,LWC V1.00 B64,2013-02-15 06:34:00,
2013-02-14 22:39:00,43.5,41.6,30.22,NNW,348,0.0,0.0,93,0.00,,,0.01,LWC V1.00 B64,2013-02-15 06:39:00,
2013-02-14 22:44:00,43.4,41.5,30.22,NNW,348,0.0,0.0,93,0.00,,,0.01,LWC V1.00 B64,2013-02-15 06:44:00,
2013-02-14 22:49:00,43.2,41.3,30.22,NNW,348,0.0,1.0,93,0.00,,,0.01,LWC V1.00 B64,2013-02-15 06:49:00,
2013-02-14 22:54:00,42.9,41.0,30.22,NNW,348,0.0,0.0,93,0.00,,,0.01,LWC V1.00 B64,2013-02-15 06:54:00,
2013-02-14 22:59:00,42.7,40.8,30.22,NNW,348,0.0,0.0,93,0.00,,,0.01,LWC V1.00 B64,2013-02-15 06:59:00,
2013-02-14 23:04:00,42.6,41.0,30.22,NNW,348,0.0,0.0,94,0.00,,,0.01,LWC V1.00 B64,2013-02-15 07:04:00,
2013-02-14 23:09:00,42.6,41.0,30.22,NNW,348,0.0,0.0,94,0.00,,,0.01,LWC V1.00 B64,2013-02-15 07:09:00,
2013-02-14 23:14:00,42.5,40.9,30.22,NNW,348,0.0,0.0,94,0.00,,,0.01,LWC V1.00 B64,2013-02-15 07:14:00,
2013-02-14 23:19:00,42.7,41.1,30.22,NNW,348,0.0,0.0,94,0.00,,,0.01,LWC V1.00 B64,2013-02-15 07:19:00,
2013-02-14 23:24:00,42.8,41.2,30.22,NNW,348,0.0,0.0,94,0.00,,,0.01,LWC V1.00 B64,2013-02-15 07:24:00,
2013-02-14 23:29:00,42.7,41.1,30.23,NNW,348,0.0,0.0,94,0.00,,,0.01,LWC V1.00 B64,2013-02-15 07:29:00,
2013-02-14 23:34:00,42.7,41.1,30.22,NNW,348,0.0,0.0,94,0.00,,,0.01,LWC V1.00 B64,2013-02-15 07:34:00,
2013-02-14 23:39:00,42.6,41.0,30.22,NNW,348,0.0,0.0,94,0.00,,,0.01,LWC V1.00 B64,2013-02-15 07:39:00,
2013-02-14 23:44:00,42.8,41.5,30.22,NNW,348,0.0,0.0,95,0.00,,,0.01,LWC V1.00 B64,2013-02-15 07:44:00,
2013-02-14 23:49:00,42.8,41.5,30.23,NNW,348,0.0,0.0,95,0.00,,,0.01,LWC V1.00 B64,2013-02-15 07:49:00,
2013-02-14 23:54:00,42.8,41.5,30.23,NNW,348,0.0,0.0,95,0.00,,,0.01,LWC V1.00 B64,2013-02-15 07:54:00,
2013-02-14 23:59:00,42.8,41.5,30.22,NNW,348,0.0,0.0,95,0.00,,,0.01,LWC V1.00 B64,2013-02-15 07:59:00,